sensor_id;sensor_type;location;lat;lon;timestamp;pressure;altitude;pressure_sealevel;temperature;humidity
11672;BME280;5892;43.412;24.612;2023-04-28T00:00:21;100285.19;;;8.78;66.57
11672;BME280;5892;43.412;24.612;2023-04-28T00:02:48;100281.50;;;8.69;66.74
11672;BME280;5892;43.412;24.612;2023-04-28T00:05:16;100281.28;;;8.66;67.26
11672;BME280;5892;43.412;24.612;2023-04-28T00:07:43;100280.06;;;8.58;67.15
11672;BME280;5892;43.412;24.612;2023-04-28T00:10:11;100294.66;;;8.48;67.53
11672;BME280;5892;43.412;24.612;2023-04-28T00:12:38;100302.44;;;8.41;67.68
11672;BME280;5892;43.412;24.612;2023-04-28T00:15:06;100319.03;;;8.45;67.88
11672;BME280;5892;43.412;24.612;2023-04-28T00:17:33;100186.38;;;7.50;67.66
11672;BME280;5892;43.412;24.612;2023-04-28T00:20:00;100303.00;;;8.38;67.75
11672;BME280;5892;43.412;24.612;2023-04-28T00:22:27;100152.22;;;7.15;68.01
11672;BME280;5892;43.412;24.612;2023-04-28T00:24:55;100292.53;;;8.27;68.06
11672;BME280;5892;43.412;24.612;2023-04-28T00:27:23;100294.28;;;8.18;68.72
11672;BME280;5892;43.412;24.612;2023-04-28T00:29:50;100290.59;;;8.08;69.09
11672;BME280;5892;43.412;24.612;2023-04-28T00:32:17;100285.81;;;8.00;69.06
11672;BME280;5892;43.412;24.612;2023-04-28T00:34:44;100301.06;;;8.01;68.94
11672;BME280;5892;43.412;24.612;2023-04-28T00:37:11;100294.50;;;8.02;69.06
11672;BME280;5892;43.412;24.612;2023-04-28T00:39:38;100283.72;;;7.92;69.49
11672;BME280;5892;43.412;24.612;2023-04-28T00:42:06;100298.03;;;8.03;69.57
11672;BME280;5892;43.412;24.612;2023-04-28T00:44:34;100301.94;;;7.97;69.98
11672;BME280;5892;43.412;24.612;2023-04-28T00:47:01;100297.97;;;7.89;70.14
11672;BME280;5892;43.412;24.612;2023-04-28T00:49:29;100309.44;;;7.86;70.95
11672;BME280;5892;43.412;24.612;2023-04-28T00:51:56;100306.78;;;7.81;71.06
11672;BME280;5892;43.412;24.612;2023-04-28T00:54:28;100311.00;;;7.92;70.71
11672;BME280;5892;43.412;24.612;2023-04-28T00:56:55;100312.69;;;7.88;71.24
11672;BME280;5892;43.412;24.612;2023-04-28T00:59:22;100309.44;;;7.86;71.09
11672;BME280;5892;43.412;24.612;2023-04-28T01:01:50;100300.13;;;7.69;71.53
11672;BME280;5892;43.412;24.612;2023-04-28T01:04:19;100319.16;;;7.74;71.36
11672;BME280;5892;43.412;24.612;2023-04-28T01:06:47;100309.69;;;7.66;71.08
11672;BME280;5892;43.412;24.612;2023-04-28T01:09:15;100309.13;;;7.45;72.00
11672;BME280;5892;43.412;24.612;2023-04-28T01:11:42;100321.75;;;7.60;72.35
11672;BME280;5892;43.412;24.612;2023-04-28T01:14:09;100319.91;;;7.55;72.61
11672;BME280;5892;43.412;24.612;2023-04-28T01:16:37;100326.78;;;7.53;72.80
11672;BME280;5892;43.412;24.612;2023-04-28T01:19:06;100322.53;;;7.42;73.56
11672;BME280;5892;43.412;24.612;2023-04-28T01:21:33;100343.19;;;7.48;73.76
11672;BME280;5892;43.412;24.612;2023-04-28T01:24:02;100333.19;;;7.38;73.93
11672;BME280;5892;43.412;24.612;2023-04-28T01:26:31;100326.13;;;7.37;74.20
11672;BME280;5892;43.412;24.612;2023-04-28T01:28:58;100325.78;;;7.15;74.86
11672;BME280;5892;43.412;24.612;2023-04-28T01:31:25;100323.94;;;7.10;74.75
11672;BME280;5892;43.412;24.612;2023-04-28T01:33:52;100298.47;;;6.91;75.39
11672;BME280;5892;43.412;24.612;2023-04-28T01:36:19;100329.16;;;7.02;75.90
11672;BME280;5892;43.412;24.612;2023-04-28T01:38:47;100332.16;;;7.05;75.58
11672;BME280;5892;43.412;24.612;2023-04-28T01:41:15;100311.69;;;6.79;76.09
11672;BME280;5892;43.412;24.612;2023-04-28T01:43:42;100297.13;;;6.60;76.88
11672;BME280;5892;43.412;24.612;2023-04-28T01:46:08;100323.03;;;6.86;76.44
11672;BME280;5892;43.412;24.612;2023-04-28T01:48:35;100325.31;;;6.79;77.00
11672;BME280;5892;43.412;24.612;2023-04-28T01:51:02;100329.41;;;6.76;77.17
11672;BME280;5892;43.412;24.612;2023-04-28T01:53:29;100322.84;;;6.77;77.20
11672;BME280;5892;43.412;24.612;2023-04-28T01:55:56;100325.00;;;6.80;77.00
11672;BME280;5892;43.412;24.612;2023-04-28T01:58:25;100318.50;;;6.76;77.34
11672;BME280;5892;43.412;24.612;2023-04-28T02:00:51;100310.63;;;6.75;77.39
11672;BME280;5892;43.412;24.612;2023-04-28T02:03:18;100320.44;;;6.71;77.49
11672;BME280;5892;43.412;24.612;2023-04-28T02:05:45;100315.88;;;6.66;77.51
11672;BME280;5892;43.412;24.612;2023-04-28T02:08:12;100329.72;;;6.70;77.61
11672;BME280;5892;43.412;24.612;2023-04-28T02:10:39;100280.94;;;6.39;77.26
11672;BME280;5892;43.412;24.612;2023-04-28T02:13:06;100322.94;;;6.67;77.08
11672;BME280;5892;43.412;24.612;2023-04-28T02:15:38;100329.28;;;6.58;78.12
11672;BME280;5892;43.412;24.612;2023-04-28T02:18:05;100325.09;;;6.70;76.98
11672;BME280;5892;43.412;24.612;2023-04-28T02:20:32;100333.06;;;6.62;77.47
11672;BME280;5892;43.412;24.612;2023-04-28T02:22:59;100319.78;;;6.50;77.46
11672;BME280;5892;43.412;24.612;2023-04-28T02:25:27;100334.75;;;6.53;77.32
11672;BME280;5892;43.412;24.612;2023-04-28T02:27:53;100341.91;;;6.44;78.72
11672;BME280;5892;43.412;24.612;2023-04-28T02:30:21;100329.63;;;6.46;78.37
11672;BME280;5892;43.412;24.612;2023-04-28T02:32:50;100347.09;;;6.40;78.53
11672;BME280;5892;43.412;24.612;2023-04-28T02:35:17;100351.16;;;6.43;78.49
11672;BME280;5892;43.412;24.612;2023-04-28T02:37:43;100349.03;;;6.34;78.70
11672;BME280;5892;43.412;24.612;2023-04-28T02:40:11;100325.72;;;6.18;79.07
11672;BME280;5892;43.412;24.612;2023-04-28T02:42:38;100367.00;;;6.30;79.21
11672;BME280;5892;43.412;24.612;2023-04-28T02:45:06;100359.47;;;6.17;80.27
11672;BME280;5892;43.412;24.612;2023-04-28T02:47:33;100374.41;;;6.20;80.08
11672;BME280;5892;43.412;24.612;2023-04-28T02:50:01;100381.81;;;6.09;81.30
11672;BME280;5892;43.412;24.612;2023-04-28T02:52:28;100382.41;;;6.01;81.90
11672;BME280;5892;43.412;24.612;2023-04-28T02:54:55;100365.56;;;5.84;82.24
11672;BME280;5892;43.412;24.612;2023-04-28T02:57:22;100389.44;;;6.02;82.47
11672;BME280;5892;43.412;24.612;2023-04-28T02:59:50;100365.03;;;5.87;82.43
11672;BME280;5892;43.412;24.612;2023-04-28T03:02:16;100404.66;;;6.08;82.69
11672;BME280;5892;43.412;24.612;2023-04-28T03:04:45;100397.03;;;6.10;82.43
11672;BME280;5892;43.412;24.612;2023-04-28T03:07:13;100403.84;;;6.08;82.19
11672;BME280;5892;43.412;24.612;2023-04-28T03:09:40;100408.47;;;6.07;82.79
11672;BME280;5892;43.412;24.612;2023-04-28T03:12:07;100410.09;;;6.08;82.72
11672;BME280;5892;43.412;24.612;2023-04-28T03:14:34;100410.66;;;6.10;82.19
11672;BME280;5892;43.412;24.612;2023-04-28T03:17:05;100417.69;;;6.21;82.17
11672;BME280;5892;43.412;24.612;2023-04-28T03:19:32;100395.97;;;6.06;82.08
11672;BME280;5892;43.412;24.612;2023-04-28T03:21:59;100395.97;;;6.06;82.38
11672;BME280;5892;43.412;24.612;2023-04-28T03:24:27;100424.78;;;6.07;81.57
11672;BME280;5892;43.412;24.612;2023-04-28T03:26:54;100427.00;;;6.00;82.44
11672;BME280;5892;43.412;24.612;2023-04-28T03:29:21;100427.00;;;6.05;81.78
11672;BME280;5892;43.412;24.612;2023-04-28T03:31:50;100443.84;;;6.07;81.55
11672;BME280;5892;43.412;24.612;2023-04-28T03:34:17;100442.50;;;6.05;81.35
11672;BME280;5892;43.412;24.612;2023-04-28T03:36:47;100410.19;;;5.78;82.08
11672;BME280;5892;43.412;24.612;2023-04-28T03:39:13;100410.97;;;5.99;81.29
11672;BME280;5892;43.412;24.612;2023-04-28T03:41:42;100453.81;;;6.37;80.83
11672;BME280;5892;43.412;24.612;2023-04-28T03:44:08;100462.13;;;6.61;79.87
11672;BME280;5892;43.412;24.612;2023-04-28T03:46:35;100453.47;;;6.93;78.81
11672;BME280;5892;43.412;24.612;2023-04-28T03:49:02;100452.16;;;7.24;77.06
11672;BME280;5892;43.412;24.612;2023-04-28T03:51:30;100457.66;;;7.19;76.52
11672;BME280;5892;43.412;24.612;2023-04-28T03:53:58;100466.56;;;7.30;76.19
11672;BME280;5892;43.412;24.612;2023-04-28T03:56:25;100465.34;;;7.75;74.29
11672;BME280;5892;43.412;24.612;2023-04-28T03:58:54;100475.56;;;7.59;74.28
11672;BME280;5892;43.412;24.612;2023-04-28T04:01:21;100475.31;;;7.89;73.42
11672;BME280;5892;43.412;24.612;2023-04-28T04:03:47;100472.69;;;8.32;71.87
11672;BME280;5892;43.412;24.612;2023-04-28T04:06:14;100491.00;;;8.92;69.84
11672;BME280;5892;43.412;24.612;2023-04-28T04:08:42;100479.41;;;9.19;67.96
11672;BME280;5892;43.412;24.612;2023-04-28T04:11:09;100500.81;;;9.12;67.53
11672;BME280;5892;43.412;24.612;2023-04-28T04:13:35;100491.59;;;8.89;68.58
11672;BME280;5892;43.412;24.612;2023-04-28T04:16:05;100487.28;;;9.02;68.12
11672;BME280;5892;43.412;24.612;2023-04-28T04:18:32;100497.25;;;8.74;69.06
11672;BME280;5892;43.412;24.612;2023-04-28T04:20:59;100470.13;;;8.59;69.27
11672;BME280;5892;43.412;24.612;2023-04-28T04:23:26;100498.94;;;8.70;69.57
11672;BME280;5892;43.412;24.612;2023-04-28T04:25:53;100461.50;;;8.52;70.88
11672;BME280;5892;43.412;24.612;2023-04-28T04:28:20;100507.16;;;9.26;68.80
11672;BME280;5892;43.412;24.612;2023-04-28T04:30:46;100497.78;;;9.14;68.60
11672;BME280;5892;43.412;24.612;2023-04-28T04:33:16;100482.19;;;8.58;69.30
11672;BME280;5892;43.412;24.612;2023-04-28T04:35:43;100491.16;;;8.59;70.46
11672;BME280;5892;43.412;24.612;2023-04-28T04:38:10;100513.13;;;8.72;70.37
11672;BME280;5892;43.412;24.612;2023-04-28T04:40:36;100514.97;;;8.58;71.01
11672;BME280;5892;43.412;24.612;2023-04-28T04:43:03;100515.06;;;8.48;70.21
11672;BME280;5892;43.412;24.612;2023-04-28T04:45:31;100509.72;;;8.38;72.05
11672;BME280;5892;43.412;24.612;2023-04-28T04:48:01;100509.16;;;8.41;72.10
11672;BME280;5892;43.412;24.612;2023-04-28T04:50:32;100508.41;;;8.35;71.97
11672;BME280;5892;43.412;24.612;2023-04-28T04:52:59;100506.53;;;8.31;73.29
11672;BME280;5892;43.412;24.612;2023-04-28T04:55:26;100500.97;;;8.41;73.67
11672;BME280;5892;43.412;24.612;2023-04-28T04:57:53;100506.09;;;8.66;73.13
11672;BME280;5892;43.412;24.612;2023-04-28T05:00:21;100514.53;;;8.70;73.21
11672;BME280;5892;43.412;24.612;2023-04-28T05:02:48;100519.16;;;8.69;73.50
11672;BME280;5892;43.412;24.612;2023-04-28T05:05:15;100517.56;;;8.68;73.33
11672;BME280;5892;43.412;24.612;2023-04-28T05:07:43;100482.75;;;8.55;72.87
11672;BME280;5892;43.412;24.612;2023-04-28T05:10:10;100517.78;;;8.72;72.59
11672;BME280;5892;43.412;24.612;2023-04-28T05:12:37;100512.19;;;8.82;72.93
11672;BME280;5892;43.412;24.612;2023-04-28T05:15:04;100520.16;;;8.97;72.56
11672;BME280;5892;43.412;24.612;2023-04-28T05:17:32;100511.81;;;9.45;71.26
11672;BME280;5892;43.412;24.612;2023-04-28T05:20:00;100506.75;;;9.84;68.58
11672;BME280;5892;43.412;24.612;2023-04-28T05:22:26;100535.88;;;10.53;67.33
11672;BME280;5892;43.412;24.612;2023-04-28T05:24:57;100526.31;;;10.78;65.12
11672;BME280;5892;43.412;24.612;2023-04-28T05:27:23;100541.84;;;11.32;63.11
11672;BME280;5892;43.412;24.612;2023-04-28T05:29:50;100527.16;;;11.51;62.02
11672;BME280;5892;43.412;24.612;2023-04-28T05:32:17;100541.16;;;11.85;60.39
11672;BME280;5892;43.412;24.612;2023-04-28T05:34:44;100531.03;;;11.94;60.04
11672;BME280;5892;43.412;24.612;2023-04-28T05:37:11;100552.56;;;12.31;58.23
11672;BME280;5892;43.412;24.612;2023-04-28T05:39:38;100550.19;;;12.39;58.16
11672;BME280;5892;43.412;24.612;2023-04-28T05:42:10;100564.38;;;12.32;58.17
11672;BME280;5892;43.412;24.612;2023-04-28T05:44:37;100562.53;;;12.50;57.45
11672;BME280;5892;43.412;24.612;2023-04-28T05:47:04;100556.22;;;12.58;57.17
11672;BME280;5892;43.412;24.612;2023-04-28T05:49:31;100556.22;;;12.58;57.78
11672;BME280;5892;43.412;24.612;2023-04-28T05:51:58;100564.09;;;12.82;57.23
11672;BME280;5892;43.412;24.612;2023-04-28T05:54:25;100560.47;;;12.72;58.12
11672;BME280;5892;43.412;24.612;2023-04-28T05:56:52;100562.31;;;12.86;57.59
11672;BME280;5892;43.412;24.612;2023-04-28T05:59:20;100551.09;;;12.65;58.22
11672;BME280;5892;43.412;24.612;2023-04-28T06:01:47;100569.44;;;12.87;58.67
11672;BME280;5892;43.412;24.612;2023-04-28T06:04:15;100570.13;;;12.53;59.40
11672;BME280;5892;43.412;24.612;2023-04-28T06:06:42;100577.44;;;12.26;60.63
11672;BME280;5892;43.412;24.612;2023-04-28T06:09:09;100576.44;;;12.22;61.02
11672;BME280;5892;43.412;24.612;2023-04-28T06:11:35;100572.75;;;12.27;60.62
11672;BME280;5892;43.412;24.612;2023-04-28T06:14:02;100578.41;;;12.30;61.03
11672;BME280;5892;43.412;24.612;2023-04-28T06:16:31;100575.31;;;12.23;61.32
11672;BME280;5892;43.412;24.612;2023-04-28T06:18:58;100587.53;;;12.40;62.24
11672;BME280;5892;43.412;24.612;2023-04-28T06:21:25;100572.66;;;12.41;62.59
11672;BME280;5892;43.412;24.612;2023-04-28T06:23:53;100577.81;;;12.34;62.14
11672;BME280;5892;43.412;24.612;2023-04-28T06:26:20;100562.75;;;12.31;62.46
11672;BME280;5892;43.412;24.612;2023-04-28T06:28:48;100577.66;;;12.39;62.69
11672;BME280;5892;43.412;24.612;2023-04-28T06:31:15;100572.31;;;12.34;63.28
11672;BME280;5892;43.412;24.612;2023-04-28T06:33:43;100579.59;;;12.78;62.02
11672;BME280;5892;43.412;24.612;2023-04-28T06:36:10;100575.97;;;13.08;61.01
11672;BME280;5892;43.412;24.612;2023-04-28T06:38:41;100579.88;;;13.24;60.57
11672;BME280;5892;43.412;24.612;2023-04-28T06:41:08;100579.75;;;13.29;61.02
11672;BME280;5892;43.412;24.612;2023-04-28T06:43:35;100587.22;;;13.63;60.34
11672;BME280;5892;43.412;24.612;2023-04-28T06:46:02;100583.97;;;13.61;59.29
11672;BME280;5892;43.412;24.612;2023-04-28T06:48:29;100478.25;;;13.45;59.19
11672;BME280;5892;43.412;24.612;2023-04-28T06:50:57;100547.06;;;13.71;58.48
11672;BME280;5892;43.412;24.612;2023-04-28T06:53:24;100590.25;;;14.05;58.05
11672;BME280;5892;43.412;24.612;2023-04-28T06:55:51;100589.28;;;14.09;58.95
11672;BME280;5892;43.412;24.612;2023-04-28T06:58:18;100587.19;;;13.97;58.94
11672;BME280;5892;43.412;24.612;2023-04-28T07:00:46;100584.44;;;14.06;59.24
11672;BME280;5892;43.412;24.612;2023-04-28T07:03:13;100595.97;;;13.74;59.50
11672;BME280;5892;43.412;24.612;2023-04-28T07:05:40;100586.38;;;13.20;62.06
11672;BME280;5892;43.412;24.612;2023-04-28T07:08:08;100590.13;;;13.24;61.89
11672;BME280;5892;43.412;24.612;2023-04-28T07:10:35;100571.03;;;12.79;62.15
11672;BME280;5892;43.412;24.612;2023-04-28T07:13:02;100600.94;;;13.11;61.70
11672;BME280;5892;43.412;24.612;2023-04-28T07:15:29;100598.28;;;12.98;62.27
11672;BME280;5892;43.412;24.612;2023-04-28T07:17:56;100602.97;;;12.97;62.44
11672;BME280;5892;43.412;24.612;2023-04-28T07:20:23;100598.59;;;13.05;62.17
11672;BME280;5892;43.412;24.612;2023-04-28T07:22:50;100597.13;;;12.90;62.85
11672;BME280;5892;43.412;24.612;2023-04-28T07:25:18;100585.00;;;12.91;62.81
11672;BME280;5892;43.412;24.612;2023-04-28T07:27:46;100593.97;;;13.14;62.68
11672;BME280;5892;43.412;24.612;2023-04-28T07:30:13;100598.34;;;13.15;63.96
11672;BME280;5892;43.412;24.612;2023-04-28T07:32:41;100604.09;;;12.96;65.64
11672;BME280;5892;43.412;24.612;2023-04-28T07:35:08;100593.25;;;13.08;65.31
11672;BME280;5892;43.412;24.612;2023-04-28T07:37:35;100602.56;;;13.21;64.93
11672;BME280;5892;43.412;24.612;2023-04-28T07:40:03;100602.25;;;13.40;64.14
11672;BME280;5892;43.412;24.612;2023-04-28T07:42:32;100587.72;;;13.65;63.60
11672;BME280;5892;43.412;24.612;2023-04-28T07:44:58;100588.19;;;13.67;63.17
11672;BME280;5892;43.412;24.612;2023-04-28T07:47:25;100596.44;;;13.67;63.44
11672;BME280;5892;43.412;24.612;2023-04-28T07:49:53;100597.09;;;13.55;63.49
11672;BME280;5892;43.412;24.612;2023-04-28T07:52:20;100564.38;;;13.28;63.69
11672;BME280;5892;43.412;24.612;2023-04-28T07:54:47;100584.47;;;13.72;64.07
11672;BME280;5892;43.412;24.612;2023-04-28T07:57:14;100562.78;;;13.70;63.24
11672;BME280;5892;43.412;24.612;2023-04-28T07:59:42;100572.84;;;14.30;61.75
11672;BME280;5892;43.412;24.612;2023-04-28T08:02:09;100586.81;;;14.80;61.41
11672;BME280;5892;43.412;24.612;2023-04-28T08:04:37;100552.41;;;14.86;61.74
11672;BME280;5892;43.412;24.612;2023-04-28T08:07:04;100568.00;;;15.03;59.76
11672;BME280;5892;43.412;24.612;2023-04-28T08:09:31;100549.59;;;15.15;60.01
11672;BME280;5892;43.412;24.612;2023-04-28T08:11:59;100572.72;;;15.32;59.74
11672;BME280;5892;43.412;24.612;2023-04-28T08:14:27;100579.22;;;15.56;59.88
11672;BME280;5892;43.412;24.612;2023-04-28T08:16:56;100537.78;;;15.56;59.14
11672;BME280;5892;43.412;24.612;2023-04-28T08:19:23;100584.19;;;15.63;58.95
11672;BME280;5892;43.412;24.612;2023-04-28T08:21:50;100576.50;;;15.48;59.24
11672;BME280;5892;43.412;24.612;2023-04-28T08:24:17;100571.63;;;15.53;59.50
11672;BME280;5892;43.412;24.612;2023-04-28T08:26:44;100571.59;;;15.74;59.15
11672;BME280;5892;43.412;24.612;2023-04-28T08:29:11;100568.28;;;15.60;58.76
11672;BME280;5892;43.412;24.612;2023-04-28T08:31:38;100573.38;;;15.28;59.82
11672;BME280;5892;43.412;24.612;2023-04-28T08:34:06;100570.69;;;15.82;59.35
11672;BME280;5892;43.412;24.612;2023-04-28T08:36:33;100568.22;;;15.89;58.47
11672;BME280;5892;43.412;24.612;2023-04-28T08:39:00;100554.94;;;15.41;58.86
11672;BME280;5892;43.412;24.612;2023-04-28T08:41:31;100557.97;;;15.48;58.84
11672;BME280;5892;43.412;24.612;2023-04-28T08:43:58;100562.94;;;15.34;58.62
11672;BME280;5892;43.412;24.612;2023-04-28T08:46:27;100548.72;;;15.44;59.94
11672;BME280;5892;43.412;24.612;2023-04-28T08:48:59;100556.22;;;15.44;58.91
11672;BME280;5892;43.412;24.612;2023-04-28T08:51:33;100534.34;;;15.59;59.02
11672;BME280;5892;43.412;24.612;2023-04-28T08:54:02;100541.69;;;15.55;60.35
11672;BME280;5892;43.412;24.612;2023-04-28T08:56:31;100551.06;;;15.34;59.40
11672;BME280;5892;43.412;24.612;2023-04-28T08:59:01;100546.22;;;15.10;59.52
11672;BME280;5892;43.412;24.612;2023-04-28T09:01:29;100543.00;;;15.49;60.09
11672;BME280;5892;43.412;24.612;2023-04-28T09:03:56;100523.09;;;15.64;59.88
11672;BME280;5892;43.412;24.612;2023-04-28T09:06:25;100534.06;;;15.73;59.70
11672;BME280;5892;43.412;24.612;2023-04-28T09:08:54;100538.13;;;15.88;57.28
11672;BME280;5892;43.412;24.612;2023-04-28T09:11:21;100508.72;;;15.71;57.49
11672;BME280;5892;43.412;24.612;2023-04-28T09:13:49;100526.28;;;15.87;56.64
11672;BME280;5892;43.412;24.612;2023-04-28T09:16:16;100522.13;;;16.26;57.30
11672;BME280;5892;43.412;24.612;2023-04-28T09:18:54;100527.97;;;16.25;58.59
11672;BME280;5892;43.412;24.612;2023-04-28T09:21:22;100526.06;;;16.37;57.21
11672;BME280;5892;43.412;24.612;2023-04-28T09:23:49;100531.81;;;16.57;57.41
11672;BME280;5892;43.412;24.612;2023-04-28T09:26:17;100522.84;;;16.60;55.93
11672;BME280;5892;43.412;24.612;2023-04-28T09:28:44;100523.31;;;16.62;55.25
11672;BME280;5892;43.412;24.612;2023-04-28T09:31:24;100514.03;;;16.33;56.04
11672;BME280;5892;43.412;24.612;2023-04-28T09:33:58;100512.47;;;15.54;59.34
11672;BME280;5892;43.412;24.612;2023-04-28T09:36:27;100512.81;;;15.98;57.94
11672;BME280;5892;43.412;24.612;2023-04-28T09:38:56;100510.75;;;15.95;57.38
11672;BME280;5892;43.412;24.612;2023-04-28T09:41:35;100458.69;;;15.97;56.85
11672;BME280;5892;43.412;24.612;2023-04-28T09:44:13;100508.19;;;16.35;56.11
11672;BME280;5892;43.412;24.612;2023-04-28T09:46:41;100510.81;;;16.19;56.38
11672;BME280;5892;43.412;24.612;2023-04-28T09:49:09;100467.16;;;15.67;59.87
11672;BME280;5892;43.412;24.612;2023-04-28T09:51:36;100505.94;;;16.04;57.99
11672;BME280;5892;43.412;24.612;2023-04-28T09:54:04;100492.63;;;16.42;57.86
11672;BME280;5892;43.412;24.612;2023-04-28T09:56:33;100502.53;;;16.92;55.16
11672;BME280;5892;43.412;24.612;2023-04-28T09:59:04;100494.91;;;17.13;52.73
11672;BME280;5892;43.412;24.612;2023-04-28T10:01:35;100491.09;;;17.46;50.98
11672;BME280;5892;43.412;24.612;2023-04-28T10:04:03;100470.75;;;17.54;51.22
11672;BME280;5892;43.412;24.612;2023-04-28T10:06:33;100484.25;;;17.55;52.07
11672;BME280;5892;43.412;24.612;2023-04-28T10:09:00;100472.84;;;17.17;53.21
11672;BME280;5892;43.412;24.612;2023-04-28T10:11:27;100470.38;;;16.51;53.99
11672;BME280;5892;43.412;24.612;2023-04-28T10:13:55;100469.56;;;16.50;53.96
11672;BME280;5892;43.412;24.612;2023-04-28T10:16:23;100470.84;;;15.72;56.57
11672;BME280;5892;43.412;24.612;2023-04-28T10:18:53;100452.66;;;14.96;59.37
11672;BME280;5892;43.412;24.612;2023-04-28T10:21:22;100451.13;;;15.61;58.40
11672;BME280;5892;43.412;24.612;2023-04-28T10:24:13;100469.81;;;16.21;56.35
11672;BME280;5892;43.412;24.612;2023-04-28T10:27:02;100472.91;;;16.20;56.27
11672;BME280;5892;43.412;24.612;2023-04-28T10:29:31;100454.59;;;16.27;54.32
11672;BME280;5892;43.412;24.612;2023-04-28T10:32:19;100467.84;;;15.44;57.03
11672;BME280;5892;43.412;24.612;2023-04-28T10:34:47;100469.00;;;15.76;57.91
11672;BME280;5892;43.412;24.612;2023-04-28T10:37:15;100453.78;;;16.15;56.95
11672;BME280;5892;43.412;24.612;2023-04-28T10:42:53;100451.59;;;16.44;55.51
11672;BME280;5892;43.412;24.612;2023-04-28T10:46:01;100442.84;;;16.79;54.83
11672;BME280;5892;43.412;24.612;2023-04-28T10:48:53;100447.13;;;17.44;53.42
11672;BME280;5892;43.412;24.612;2023-04-28T10:51:22;100453.03;;;17.03;52.33
11672;BME280;5892;43.412;24.612;2023-04-28T10:54:15;100472.44;;;16.90;52.03
11672;BME280;5892;43.412;24.612;2023-04-28T10:57:19;100454.50;;;17.12;51.05
11672;BME280;5892;43.412;24.612;2023-04-28T10:59:47;100448.06;;;17.08;50.47
11672;BME280;5892;43.412;24.612;2023-04-28T11:02:47;100450.91;;;17.24;50.16
11672;BME280;5892;43.412;24.612;2023-04-28T11:05:17;100424.44;;;16.59;50.58
11672;BME280;5892;43.412;24.612;2023-04-28T11:11:15;100450.19;;;16.99;50.36
11672;BME280;5892;43.412;24.612;2023-04-28T11:13:42;100420.94;;;17.14;48.89
11672;BME280;5892;43.412;24.612;2023-04-28T11:16:14;100423.22;;;17.52;46.17
11672;BME280;5892;43.412;24.612;2023-04-28T11:18:49;100422.69;;;17.34;46.08
11672;BME280;5892;43.412;24.612;2023-04-28T11:21:18;100424.06;;;17.12;46.33
11672;BME280;5892;43.412;24.612;2023-04-28T11:23:45;100426.03;;;16.60;47.76
11672;BME280;5892;43.412;24.612;2023-04-28T11:26:12;100428.88;;;16.75;48.38
11672;BME280;5892;43.412;24.612;2023-04-28T11:28:46;100378.47;;;16.82;48.50
11672;BME280;5892;43.412;24.612;2023-04-28T11:31:15;100395.06;;;16.94;46.02
11672;BME280;5892;43.412;24.612;2023-04-28T11:33:46;100425.94;;;17.36;46.91
11672;BME280;5892;43.412;24.612;2023-04-28T11:36:24;100382.16;;;16.86;45.65
11672;BME280;5892;43.412;24.612;2023-04-28T11:38:52;100418.97;;;17.14;46.44
11672;BME280;5892;43.412;24.612;2023-04-28T11:41:20;100419.59;;;17.35;46.04
11672;BME280;5892;43.412;24.612;2023-04-28T11:43:47;100368.38;;;16.62;45.59
11672;BME280;5892;43.412;24.612;2023-04-28T11:46:18;100413.53;;;17.18;44.15
11672;BME280;5892;43.412;24.612;2023-04-28T11:48:46;100413.63;;;16.93;42.67
11672;BME280;5892;43.412;24.612;2023-04-28T11:51:34;100415.41;;;16.49;43.35
11672;BME280;5892;43.412;24.612;2023-04-28T11:54:03;100387.03;;;16.77;44.60
11672;BME280;5892;43.412;24.612;2023-04-28T11:56:37;100398.31;;;17.40;43.10
11672;BME280;5892;43.412;24.612;2023-04-28T11:59:06;100388.59;;;17.46;41.96
11672;BME280;5892;43.412;24.612;2023-04-28T12:01:42;100376.16;;;17.67;41.70
11672;BME280;5892;43.412;24.612;2023-04-28T12:04:10;100378.59;;;18.00;40.36
11672;BME280;5892;43.412;24.612;2023-04-28T12:06:41;100388.31;;;18.10;40.65
11672;BME280;5892;43.412;24.612;2023-04-28T12:09:15;100369.81;;;17.98;38.91
11672;BME280;5892;43.412;24.612;2023-04-28T12:11:54;100354.75;;;17.52;37.77
11672;BME280;5892;43.412;24.612;2023-04-28T12:14:22;100385.63;;;17.66;38.89
11672;BME280;5892;43.412;24.612;2023-04-28T12:16:49;100380.22;;;17.58;38.70
11672;BME280;5892;43.412;24.612;2023-04-28T12:19:17;100348.84;;;17.54;39.12
11672;BME280;5892;43.412;24.612;2023-04-28T12:22:00;100378.97;;;17.55;39.12
11672;BME280;5892;43.412;24.612;2023-04-28T12:24:27;100372.13;;;17.81;40.62
11672;BME280;5892;43.412;24.612;2023-04-28T12:27:13;100364.31;;;18.17;40.56
11672;BME280;5892;43.412;24.612;2023-04-28T12:29:42;100369.25;;;17.33;40.54
11672;BME280;5892;43.412;24.612;2023-04-28T12:32:10;100366.41;;;17.02;41.90
11672;BME280;5892;43.412;24.612;2023-04-28T12:34:39;100362.94;;;16.65;43.07
11672;BME280;5892;43.412;24.612;2023-04-28T12:37:07;100342.75;;;16.77;42.69
11672;BME280;5892;43.412;24.612;2023-04-28T12:39:39;100318.53;;;16.22;43.17
11672;BME280;5892;43.412;24.612;2023-04-28T12:42:07;100348.84;;;16.82;43.40
11672;BME280;5892;43.412;24.612;2023-04-28T12:44:34;100345.59;;;16.40;44.20
11672;BME280;5892;43.412;24.612;2023-04-28T12:47:03;100350.41;;;16.43;45.54
11672;BME280;5892;43.412;24.612;2023-04-28T12:49:32;100350.00;;;16.81;44.62
11672;BME280;5892;43.412;24.612;2023-04-28T12:51:59;100310.91;;;16.83;43.77
11672;BME280;5892;43.412;24.612;2023-04-28T12:54:28;100342.94;;;17.40;43.20
11672;BME280;5892;43.412;24.612;2023-04-28T12:56:55;100337.63;;;17.78;42.95
11672;BME280;5892;43.412;24.612;2023-04-28T12:59:22;100325.78;;;17.97;41.19
11672;BME280;5892;43.412;24.612;2023-04-28T13:01:52;100319.09;;;17.98;40.92
11672;BME280;5892;43.412;24.612;2023-04-28T13:04:20;100322.50;;;18.42;39.84
11672;BME280;5892;43.412;24.612;2023-04-28T13:06:47;100325.75;;;18.28;39.59
11672;BME280;5892;43.412;24.612;2023-04-28T13:09:14;100348.34;;;18.61;38.42